sensor_id;sensor_type;location;lat;lon;timestamp;P1;durP1;ratioP1;P2;durP2;ratioP2
73951;SDS011;62304;47.662;18.324;2023-09-07T00:02:49;9.80;;;4.37;;
73951;SDS011;62304;47.662;18.324;2023-09-07T00:05:52;8.55;;;4.55;;
73951;SDS011;62304;47.662;18.324;2023-09-07T00:08:55;10.23;;;4.23;;
73951;SDS011;62304;47.662;18.324;2023-09-07T00:11:58;9.10;;;4.80;;
73951;SDS011;62304;47.662;18.324;2023-09-07T00:15:01;8.57;;;4.62;;
73951;SDS011;62304;47.662;18.324;2023-09-07T00:18:05;10.70;;;4.90;;
73951;SDS011;62304;47.662;18.324;2023-09-07T00:21:08;8.82;;;4.50;;
73951;SDS011;62304;47.662;18.324;2023-09-07T00:24:11;9.73;;;4.87;;
73951;SDS011;62304;47.662;18.324;2023-09-07T00:27:14;11.53;;;4.73;;
73951;SDS011;62304;47.662;18.324;2023-09-07T00:30:17;9.80;;;4.40;;
73951;SDS011;62304;47.662;18.324;2023-09-07T00:33:20;8.65;;;4.40;;
73951;SDS011;62304;47.662;18.324;2023-09-07T00:36:24;10.20;;;4.60;;
73951;SDS011;62304;47.662;18.324;2023-09-07T00:39:26;9.23;;;4.90;;
73951;SDS011;62304;47.662;18.324;2023-09-07T00:42:30;10.27;;;4.63;;
73951;SDS011;62304;47.662;18.324;2023-09-07T00:45:32;10.32;;;4.85;;
73951;SDS011;62304;47.662;18.324;2023-09-07T00:48:36;10.00;;;4.95;;
73951;SDS011;62304;47.662;18.324;2023-09-07T00:51:40;10.70;;;4.55;;
73951;SDS011;62304;47.662;18.324;2023-09-07T00:54:43;8.60;;;3.87;;
73951;SDS011;62304;47.662;18.324;2023-09-07T00:57:46;8.47;;;4.30;;
73951;SDS011;62304;47.662;18.324;2023-09-07T01:00:50;9.00;;;4.50;;
73951;SDS011;62304;47.662;18.324;2023-09-07T01:03:53;18.42;;;5.90;;
73951;SDS011;62304;47.662;18.324;2023-09-07T01:07:02;10.27;;;4.80;;
73951;SDS011;62304;47.662;18.324;2023-09-07T01:10:12;12.20;;;4.73;;
73951;SDS011;62304;47.662;18.324;2023-09-07T01:13:16;10.03;;;5.00;;
73951;SDS011;62304;47.662;18.324;2023-09-07T01:16:19;8.85;;;4.70;;
73951;SDS011;62304;47.662;18.324;2023-09-07T01:19:23;9.60;;;4.47;;
73951;SDS011;62304;47.662;18.324;2023-09-07T01:22:26;8.73;;;4.55;;
73951;SDS011;62304;47.662;18.324;2023-09-07T01:25:29;7.60;;;4.27;;
73951;SDS011;62304;47.662;18.324;2023-09-07T01:28:34;8.40;;;4.57;;
73951;SDS011;62304;47.662;18.324;2023-09-07T01:31:39;10.00;;;5.05;;
73951;SDS011;62304;47.662;18.324;2023-09-07T01:34:42;8.70;;;4.53;;
73951;SDS011;62304;47.662;18.324;2023-09-07T01:37:46;11.27;;;4.80;;
73951;SDS011;62304;47.662;18.324;2023-09-07T01:40:48;9.10;;;4.93;;
73951;SDS011;62304;47.662;18.324;2023-09-07T01:43:52;8.83;;;4.90;;
73951;SDS011;62304;47.662;18.324;2023-09-07T01:46:55;9.70;;;4.80;;
73951;SDS011;62304;47.662;18.324;2023-09-07T01:49:58;9.07;;;5.20;;
73951;SDS011;62304;47.662;18.324;2023-09-07T01:53:01;9.02;;;4.45;;
73951;SDS011;62304;47.662;18.324;2023-09-07T01:56:06;9.10;;;5.30;;
73951;SDS011;62304;47.662;18.324;2023-09-07T01:59:09;9.10;;;4.87;;
73951;SDS011;62304;47.662;18.324;2023-09-07T02:02:12;9.18;;;4.90;;
73951;SDS011;62304;47.662;18.324;2023-09-07T02:05:15;8.23;;;4.87;;
73951;SDS011;62304;47.662;18.324;2023-09-07T02:08:19;10.52;;;5.93;;
73951;SDS011;62304;47.662;18.324;2023-09-07T02:11:22;9.60;;;4.80;;
73951;SDS011;62304;47.662;18.324;2023-09-07T02:14:25;10.53;;;5.17;;
73951;SDS011;62304;47.662;18.324;2023-09-07T02:17:28;11.85;;;5.03;;
73951;SDS011;62304;47.662;18.324;2023-09-07T02:20:32;11.70;;;5.72;;
73951;SDS011;62304;47.662;18.324;2023-09-07T02:23:36;11.18;;;5.75;;
73951;SDS011;62304;47.662;18.324;2023-09-07T02:26:41;10.63;;;5.10;;
73951;SDS011;62304;47.662;18.324;2023-09-07T02:29:48;10.53;;;5.27;;
73951;SDS011;62304;47.662;18.324;2023-09-07T02:32:51;10.40;;;5.28;;
73951;SDS011;62304;47.662;18.324;2023-09-07T02:35:54;10.38;;;5.35;;
73951;SDS011;62304;47.662;18.324;2023-09-07T02:38:58;10.60;;;5.62;;
73951;SDS011;62304;47.662;18.324;2023-09-07T02:42:01;10.47;;;5.30;;
73951;SDS011;62304;47.662;18.324;2023-09-07T02:45:04;10.13;;;5.47;;
73951;SDS011;62304;47.662;18.324;2023-09-07T02:48:08;9.98;;;5.28;;
73951;SDS011;62304;47.662;18.324;2023-09-07T02:51:11;11.30;;;5.43;;
73951;SDS011;62304;47.662;18.324;2023-09-07T02:54:16;14.82;;;5.70;;
73951;SDS011;62304;47.662;18.324;2023-09-07T02:57:19;9.87;;;5.80;;
73951;SDS011;62304;47.662;18.324;2023-09-07T03:00:23;11.07;;;5.40;;
73951;SDS011;62304;47.662;18.324;2023-09-07T03:03:26;10.07;;;7.28;;
73951;SDS011;62304;47.662;18.324;2023-09-07T03:06:29;12.45;;;6.12;;
73951;SDS011;62304;47.662;18.324;2023-09-07T03:09:32;10.68;;;5.97;;
73951;SDS011;62304;47.662;18.324;2023-09-07T03:12:36;14.67;;;5.67;;
73951;SDS011;62304;47.662;18.324;2023-09-07T03:15:38;12.73;;;6.23;;
73951;SDS011;62304;47.662;18.324;2023-09-07T03:18:44;10.40;;;5.10;;
73951;SDS011;62304;47.662;18.324;2023-09-07T03:21:47;12.40;;;5.28;;
73951;SDS011;62304;47.662;18.324;2023-09-07T03:24:51;14.13;;;5.70;;
73951;SDS011;62304;47.662;18.324;2023-09-07T03:27:54;11.33;;;5.50;;
73951;SDS011;62304;47.662;18.324;2023-09-07T03:30:57;11.47;;;5.93;;
73951;SDS011;62304;47.662;18.324;2023-09-07T03:34:00;13.25;;;5.70;;
73951;SDS011;62304;47.662;18.324;2023-09-07T03:37:03;12.98;;;5.65;;
73951;SDS011;62304;47.662;18.324;2023-09-07T03:40:08;10.48;;;5.80;;
73951;SDS011;62304;47.662;18.324;2023-09-07T03:43:13;10.90;;;4.97;;
73951;SDS011;62304;47.662;18.324;2023-09-07T03:46:16;13.73;;;5.43;;
73951;SDS011;62304;47.662;18.324;2023-09-07T03:49:19;13.20;;;5.40;;
73951;SDS011;62304;47.662;18.324;2023-09-07T03:52:22;10.98;;;5.22;;
73951;SDS011;62304;47.662;18.324;2023-09-07T03:55:28;14.10;;;5.30;;
73951;SDS011;62304;47.662;18.324;2023-09-07T03:58:30;10.33;;;5.50;;
73951;SDS011;62304;47.662;18.324;2023-09-07T04:01:34;12.53;;;5.30;;
73951;SDS011;62304;47.662;18.324;2023-09-07T04:04:37;15.13;;;5.00;;
73951;SDS011;62304;47.662;18.324;2023-09-07T04:07:41;13.77;;;6.18;;
73951;SDS011;62304;47.662;18.324;2023-09-07T04:10:44;14.25;;;4.93;;
73951;SDS011;62304;47.662;18.324;2023-09-07T04:13:47;19.67;;;6.60;;
73951;SDS011;62304;47.662;18.324;2023-09-07T04:16:50;19.47;;;5.93;;
73951;SDS011;62304;47.662;18.324;2023-09-07T04:19:53;15.50;;;6.12;;
73951;SDS011;62304;47.662;18.324;2023-09-07T04:22:56;13.90;;;6.25;;
73951;SDS011;62304;47.662;18.324;2023-09-07T04:26:09;20.37;;;6.07;;
73951;SDS011;62304;47.662;18.324;2023-09-07T04:29:13;14.40;;;5.73;;
73951;SDS011;62304;47.662;18.324;2023-09-07T04:32:16;10.30;;;5.23;;
73951;SDS011;62304;47.662;18.324;2023-09-07T04:35:19;12.57;;;5.55;;
73951;SDS011;62304;47.662;18.324;2023-09-07T04:38:22;14.43;;;6.18;;
73951;SDS011;62304;47.662;18.324;2023-09-07T04:41:25;18.50;;;6.07;;
73951;SDS011;62304;47.662;18.324;2023-09-07T04:44:28;14.83;;;5.13;;
73951;SDS011;62304;47.662;18.324;2023-09-07T04:47:31;14.47;;;5.37;;
73951;SDS011;62304;47.662;18.324;2023-09-07T04:50:35;10.48;;;5.20;;
73951;SDS011;62304;47.662;18.324;2023-09-07T04:53:38;15.07;;;5.18;;
73951;SDS011;62304;47.662;18.324;2023-09-07T04:56:42;11.98;;;5.50;;
73951;SDS011;62304;47.662;18.324;2023-09-07T04:59:45;14.83;;;6.07;;
73951;SDS011;62304;47.662;18.324;2023-09-07T05:02:48;15.27;;;6.13;;
73951;SDS011;62304;47.662;18.324;2023-09-07T05:05:52;15.15;;;6.80;;
73951;SDS011;62304;47.662;18.324;2023-09-07T05:08:55;12.55;;;6.15;;
73951;SDS011;62304;47.662;18.324;2023-09-07T05:11:58;18.55;;;6.05;;
73951;SDS011;62304;47.662;18.324;2023-09-07T05:15:01;13.20;;;5.97;;
73951;SDS011;62304;47.662;18.324;2023-09-07T05:18:05;11.97;;;5.07;;
73951;SDS011;62304;47.662;18.324;2023-09-07T05:21:14;11.85;;;5.30;;
73951;SDS011;62304;47.662;18.324;2023-09-07T05:24:18;9.82;;;4.87;;
73951;SDS011;62304;47.662;18.324;2023-09-07T05:27:21;14.40;;;5.40;;
73951;SDS011;62304;47.662;18.324;2023-09-07T05:30:24;10.03;;;5.10;;
73951;SDS011;62304;47.662;18.324;2023-09-07T05:33:27;10.77;;;4.63;;
73951;SDS011;62304;47.662;18.324;2023-09-07T05:36:30;9.07;;;4.70;;
73951;SDS011;62304;47.662;18.324;2023-09-07T05:39:35;12.75;;;5.80;;
73951;SDS011;62304;47.662;18.324;2023-09-07T05:42:40;13.65;;;4.95;;
73951;SDS011;62304;47.662;18.324;2023-09-07T05:45:43;10.00;;;4.63;;
73951;SDS011;62304;47.662;18.324;2023-09-07T05:48:47;10.27;;;4.53;;
73951;SDS011;62304;47.662;18.324;2023-09-07T05:51:50;16.33;;;5.40;;
73951;SDS011;62304;47.662;18.324;2023-09-07T05:54:53;14.63;;;4.80;;
73951;SDS011;62304;47.662;18.324;2023-09-07T05:57:56;12.30;;;4.87;;
73951;SDS011;62304;47.662;18.324;2023-09-07T06:01:01;14.57;;;5.60;;
73951;SDS011;62304;47.662;18.324;2023-09-07T06:04:04;14.47;;;5.17;;
73951;SDS011;62304;47.662;18.324;2023-09-07T06:07:10;18.23;;;6.03;;
73951;SDS011;62304;47.662;18.324;2023-09-07T06:10:14;16.08;;;5.10;;
73951;SDS011;62304;47.662;18.324;2023-09-07T06:13:17;13.20;;;4.45;;
73951;SDS011;62304;47.662;18.324;2023-09-07T06:16:21;13.60;;;4.80;;
73951;SDS011;62304;47.662;18.324;2023-09-07T06:19:23;13.40;;;5.00;;
73951;SDS011;62304;47.662;18.324;2023-09-07T06:22:27;12.65;;;4.85;;
73951;SDS011;62304;47.662;18.324;2023-09-07T06:25:30;16.40;;;4.72;;
73951;SDS011;62304;47.662;18.324;2023-09-07T06:28:35;15.15;;;4.55;;
73951;SDS011;62304;47.662;18.324;2023-09-07T06:31:38;12.87;;;4.47;;
73951;SDS011;62304;47.662;18.324;2023-09-07T06:34:41;14.07;;;5.00;;
73951;SDS011;62304;47.662;18.324;2023-09-07T06:37:44;15.95;;;5.47;;
73951;SDS011;62304;47.662;18.324;2023-09-07T06:40:48;11.35;;;4.35;;
73951;SDS011;62304;47.662;18.324;2023-09-07T06:43:52;15.05;;;4.95;;
73951;SDS011;62304;47.662;18.324;2023-09-07T06:46:55;13.40;;;4.83;;
73951;SDS011;62304;47.662;18.324;2023-09-07T06:49:59;10.43;;;4.60;;
73951;SDS011;62304;47.662;18.324;2023-09-07T06:53:02;11.70;;;5.70;;
73951;SDS011;62304;47.662;18.324;2023-09-07T06:56:06;13.57;;;5.60;;
73951;SDS011;62304;47.662;18.324;2023-09-07T06:59:09;18.15;;;5.72;;
73951;SDS011;62304;47.662;18.324;2023-09-07T07:02:12;17.57;;;5.50;;
73951;SDS011;62304;47.662;18.324;2023-09-07T07:05:16;16.43;;;5.60;;
73951;SDS011;62304;47.662;18.324;2023-09-07T07:08:19;11.18;;;4.82;;
73951;SDS011;62304;47.662;18.324;2023-09-07T07:11:23;13.80;;;4.45;;
73951;SDS011;62304;47.662;18.324;2023-09-07T07:14:26;9.65;;;4.10;;
73951;SDS011;62304;47.662;18.324;2023-09-07T07:17:30;11.30;;;4.20;;
73951;SDS011;62304;47.662;18.324;2023-09-07T07:20:33;11.57;;;3.80;;
73951;SDS011;62304;47.662;18.324;2023-09-07T07:23:47;6.72;;;3.55;;
73951;SDS011;62304;47.662;18.324;2023-09-07T07:26:50;7.47;;;3.62;;
73951;SDS011;62304;47.662;18.324;2023-09-07T07:29:54;7.55;;;3.45;;
73951;SDS011;62304;47.662;18.324;2023-09-07T07:32:56;9.03;;;3.93;;
73951;SDS011;62304;47.662;18.324;2023-09-07T07:36:01;7.40;;;4.30;;
73951;SDS011;62304;47.662;18.324;2023-09-07T07:39:04;11.15;;;4.57;;
73951;SDS011;62304;47.662;18.324;2023-09-07T07:42:10;7.40;;;3.65;;
73951;SDS011;62304;47.662;18.324;2023-09-07T07:45:14;13.32;;;4.75;;
73951;SDS011;62304;47.662;18.324;2023-09-07T07:48:21;7.13;;;3.93;;
73951;SDS011;62304;47.662;18.324;2023-09-07T07:51:24;10.60;;;4.70;;
73951;SDS011;62304;47.662;18.324;2023-09-07T07:54:30;8.45;;;4.12;;
73951;SDS011;62304;47.662;18.324;2023-09-07T07:57:34;7.43;;;3.83;;
73951;SDS011;62304;47.662;18.324;2023-09-07T08:00:38;7.62;;;4.05;;
73951;SDS011;62304;47.662;18.324;2023-09-07T08:03:43;7.83;;;4.40;;
73951;SDS011;62304;47.662;18.324;2023-09-07T08:06:47;12.80;;;5.03;;
73951;SDS011;62304;47.662;18.324;2023-09-07T08:09:51;7.12;;;4.15;;
73951;SDS011;62304;47.662;18.324;2023-09-07T08:12:54;7.25;;;4.30;;
73951;SDS011;62304;47.662;18.324;2023-09-07T08:15:59;6.55;;;3.78;;
73951;SDS011;62304;47.662;18.324;2023-09-07T08:19:04;6.13;;;4.20;;
73951;SDS011;62304;47.662;18.324;2023-09-07T08:22:07;7.23;;;3.80;;
73951;SDS011;62304;47.662;18.324;2023-09-07T08:25:11;6.47;;;3.65;;
73951;SDS011;62304;47.662;18.324;2023-09-07T08:28:17;8.38;;;3.92;;
73951;SDS011;62304;47.662;18.324;2023-09-07T08:31:20;7.45;;;3.83;;
73951;SDS011;62304;47.662;18.324;2023-09-07T08:34:25;6.70;;;3.60;;
73951;SDS011;62304;47.662;18.324;2023-09-07T08:37:28;8.23;;;4.07;;
73951;SDS011;62304;47.662;18.324;2023-09-07T08:40:32;9.85;;;3.75;;
73951;SDS011;62304;47.662;18.324;2023-09-07T08:43:39;7.05;;;4.20;;
73951;SDS011;62304;47.662;18.324;2023-09-07T08:46:50;11.07;;;3.75;;
73951;SDS011;62304;47.662;18.324;2023-09-07T08:49:54;11.17;;;3.70;;
73951;SDS011;62304;47.662;18.324;2023-09-07T08:53:00;7.87;;;3.50;;
73951;SDS011;62304;47.662;18.324;2023-09-07T08:56:06;6.55;;;3.37;;
73951;SDS011;62304;47.662;18.324;2023-09-07T08:59:12;7.07;;;3.53;;
73951;SDS011;62304;47.662;18.324;2023-09-07T09:02:16;5.05;;;3.12;;
73951;SDS011;62304;47.662;18.324;2023-09-07T09:05:19;9.40;;;3.63;;
73951;SDS011;62304;47.662;18.324;2023-09-07T09:08:22;5.97;;;3.50;;
73951;SDS011;62304;47.662;18.324;2023-09-07T09:11:27;6.75;;;3.35;;
73951;SDS011;62304;47.662;18.324;2023-09-07T09:14:33;7.90;;;3.70;;
73951;SDS011;62304;47.662;18.324;2023-09-07T09:17:36;6.78;;;3.75;;
73951;SDS011;62304;47.662;18.324;2023-09-07T09:20:39;6.90;;;3.17;;
73951;SDS011;62304;47.662;18.324;2023-09-07T09:23:43;6.53;;;3.30;;
73951;SDS011;62304;47.662;18.324;2023-09-07T09:26:45;8.98;;;3.78;;
73951;SDS011;62304;47.662;18.324;2023-09-07T09:29:49;6.97;;;3.80;;
73951;SDS011;62304;47.662;18.324;2023-09-07T09:32:53;8.80;;;3.40;;
73951;SDS011;62304;47.662;18.324;2023-09-07T09:35:56;11.20;;;3.70;;
73951;SDS011;62304;47.662;18.324;2023-09-07T09:39:00;8.07;;;3.60;;
73951;SDS011;62304;47.662;18.324;2023-09-07T09:42:03;8.55;;;4.15;;
73951;SDS011;62304;47.662;18.324;2023-09-07T09:45:07;7.53;;;3.70;;
73951;SDS011;62304;47.662;18.324;2023-09-07T09:48:11;5.78;;;3.50;;
73951;SDS011;62304;47.662;18.324;2023-09-07T09:51:15;5.83;;;3.57;;
73951;SDS011;62304;47.662;18.324;2023-09-07T09:54:21;10.23;;;4.20;;
73951;SDS011;62304;47.662;18.324;2023-09-07T09:57:26;7.43;;;4.05;;
73951;SDS011;62304;47.662;18.324;2023-09-07T10:00:33;8.38;;;3.85;;
73951;SDS011;62304;47.662;18.324;2023-09-07T10:03:42;6.87;;;3.80;;
73951;SDS011;62304;47.662;18.324;2023-09-07T10:06:56;6.10;;;3.90;;
73951;SDS011;62304;47.662;18.324;2023-09-07T10:10:02;7.50;;;3.93;;
73951;SDS011;62304;47.662;18.324;2023-09-07T10:13:06;6.72;;;4.10;;
73951;SDS011;62304;47.662;18.324;2023-09-07T10:16:09;5.90;;;3.62;;
73951;SDS011;62304;47.662;18.324;2023-09-07T10:19:16;6.70;;;4.50;;
73951;SDS011;62304;47.662;18.324;2023-09-07T10:22:27;9.47;;;4.60;;
73951;SDS011;62304;47.662;18.324;2023-09-07T10:25:36;7.57;;;3.80;;
73951;SDS011;62304;47.662;18.324;2023-09-07T10:28:39;7.78;;;3.85;;
73951;SDS011;62304;47.662;18.324;2023-09-07T10:31:50;5.12;;;3.20;;
73951;SDS011;62304;47.662;18.324;2023-09-07T10:34:56;6.22;;;3.37;;
73951;SDS011;62304;47.662;18.324;2023-09-07T10:38:02;6.17;;;3.43;;
73951;SDS011;62304;47.662;18.324;2023-09-07T10:41:05;9.53;;;4.60;;
73951;SDS011;62304;47.662;18.324;2023-09-07T10:44:08;10.35;;;3.28;;
73951;SDS011;62304;47.662;18.324;2023-09-07T10:47:16;7.40;;;4.28;;
73951;SDS011;62304;47.662;18.324;2023-09-07T10:50:20;13.62;;;4.00;;
73951;SDS011;62304;47.662;18.324;2023-09-07T10:53:24;14.53;;;10.67;;
73951;SDS011;62304;47.662;18.324;2023-09-07T10:56:37;6.93;;;3.70;;
73951;SDS011;62304;47.662;18.324;2023-09-07T10:59:46;7.28;;;3.75;;
73951;SDS011;62304;47.662;18.324;2023-09-07T11:02:49;7.90;;;3.10;;
73951;SDS011;62304;47.662;18.324;2023-09-07T11:05:54;6.10;;;3.60;;
73951;SDS011;62304;47.662;18.324;2023-09-07T11:09:01;9.40;;;3.40;;
73951;SDS011;62304;47.662;18.324;2023-09-07T11:12:12;7.03;;;3.33;;
73951;SDS011;62304;47.662;18.324;2023-09-07T11:15:15;6.05;;;3.40;;
73951;SDS011;62304;47.662;18.324;2023-09-07T11:18:22;5.37;;;3.45;;
73951;SDS011;62304;47.662;18.324;2023-09-07T11:21:25;7.75;;;3.65;;
73951;SDS011;62304;47.662;18.324;2023-09-07T11:24:28;5.67;;;3.67;;
73951;SDS011;62304;47.662;18.324;2023-09-07T11:27:32;7.20;;;3.70;;
73951;SDS011;62304;47.662;18.324;2023-09-07T11:30:35;7.30;;;3.62;;
73951;SDS011;62304;47.662;18.324;2023-09-07T11:33:38;6.18;;;3.10;;
73951;SDS011;62304;47.662;18.324;2023-09-07T11:36:43;5.35;;;3.08;;
73951;SDS011;62304;47.662;18.324;2023-09-07T11:39:46;5.00;;;3.40;;
73951;SDS011;62304;47.662;18.324;2023-09-07T11:42:49;5.77;;;3.50;;
73951;SDS011;62304;47.662;18.324;2023-09-07T11:45:52;5.80;;;3.20;;
73951;SDS011;62304;47.662;18.324;2023-09-07T11:48:55;6.22;;;3.90;;
73951;SDS011;62304;47.662;18.324;2023-09-07T11:51:58;5.87;;;3.58;;
73951;SDS011;62304;47.662;18.324;2023-09-07T11:55:02;6.07;;;3.10;;
73951;SDS011;62304;47.662;18.324;2023-09-07T11:58:06;5.47;;;3.70;;
73951;SDS011;62304;47.662;18.324;2023-09-07T12:01:09;6.07;;;3.33;;
73951;SDS011;62304;47.662;18.324;2023-09-07T12:04:12;6.47;;;3.37;;
73951;SDS011;62304;47.662;18.324;2023-09-07T12:07:15;5.50;;;3.40;;
73951;SDS011;62304;47.662;18.324;2023-09-07T12:10:19;7.90;;;3.70;;
73951;SDS011;62304;47.662;18.324;2023-09-07T12:13:22;6.57;;;3.57;;
73951;SDS011;62304;47.662;18.324;2023-09-07T12:16:25;5.95;;;3.67;;
73951;SDS011;62304;47.662;18.324;2023-09-07T12:19:30;7.05;;;3.62;;
73951;SDS011;62304;47.662;18.324;2023-09-07T12:22:34;7.60;;;3.72;;
73951;SDS011;62304;47.662;18.324;2023-09-07T12:25:38;6.77;;;3.70;;
73951;SDS011;62304;47.662;18.324;2023-09-07T12:28:41;6.50;;;4.00;;
73951;SDS011;62304;47.662;18.324;2023-09-07T12:31:44;7.28;;;3.97;;
73951;SDS011;62304;47.662;18.324;2023-09-07T12:34:48;10.40;;;4.68;;
73951;SDS011;62304;47.662;18.324;2023-09-07T12:37:56;5.20;;;3.40;;
73951;SDS011;62304;47.662;18.324;2023-09-07T12:41:00;6.60;;;3.80;;
73951;SDS011;62304;47.662;18.324;2023-09-07T12:44:03;10.80;;;3.93;;
73951;SDS011;62304;47.662;18.324;2023-09-07T12:47:06;6.55;;;3.42;;
73951;SDS011;62304;47.662;18.324;2023-09-07T12:50:09;14.00;;;4.55;;
73951;SDS011;62304;47.662;18.324;2023-09-07T12:53:12;7.32;;;3.85;;
73951;SDS011;62304;47.662;18.324;2023-09-07T12:56:15;6.33;;;3.60;;
73951;SDS011;62304;47.662;18.324;2023-09-07T12:59:20;5.57;;;3.30;;
73951;SDS011;62304;47.662;18.324;2023-09-07T13:02:23;7.05;;;4.00;;
73951;SDS011;62304;47.662;18.324;2023-09-07T13:05:27;5.90;;;3.60;;
73951;SDS011;62304;47.662;18.324;2023-09-07T13:08:30;7.55;;;3.65;;
73951;SDS011;62304;47.662;18.324;2023-09-07T13:11:33;6.77;;;3.57;;
73951;SDS011;62304;47.662;18.324;2023-09-07T13:14:36;5.27;;;3.53;;
73951;SDS011;62304;47.662;18.324;2023-09-07T13:17:39;8.80;;;3.97;;
73951;SDS011;62304;47.662;18.324;2023-09-07T13:20:42;6.22;;;3.60;;
73951;SDS011;62304;47.662;18.324;2023-09-07T13:23:45;5.40;;;3.10;;
73951;SDS011;62304;47.662;18.324;2023-09-07T13:26:50;6.50;;;4.30;;
73951;SDS011;62304;47.662;18.324;2023-09-07T13:29:54;6.37;;;3.60;;
73951;SDS011;62304;47.662;18.324;2023-09-07T13:32:57;6.12;;;3.55;;
73951;SDS011;62304;47.662;18.324;2023-09-07T13:36:00;6.85;;;3.55;;
73951;SDS011;62304;47.662;18.324;2023-09-07T13:39:03;7.40;;;4.15;;
73951;SDS011;62304;47.662;18.324;2023-09-07T13:42:07;5.97;;;3.67;;
73951;SDS011;62304;47.662;18.324;2023-09-07T13:45:10;8.27;;;4.27;;
73951;SDS011;62304;47.662;18.324;2023-09-07T13:48:13;6.62;;;3.62;;
73951;SDS011;62304;47.662;18.324;2023-09-07T13:51:17;7.32;;;4.12;;
73951;SDS011;62304;47.662;18.324;2023-09-07T13:54:20;6.43;;;4.20;;
73951;SDS011;62304;47.662;18.324;2023-09-07T13:57:24;8.90;;;4.30;;
73951;SDS011;62304;47.662;18.324;2023-09-07T14:00:27;6.57;;;3.93;;
73951;SDS011;62304;47.662;18.324;2023-09-07T14:03:31;7.45;;;3.83;;
73951;SDS011;62304;47.662;18.324;2023-09-07T14:06:34;6.03;;;3.70;;
73951;SDS011;62304;47.662;18.324;2023-09-07T14:09:38;7.30;;;3.92;;
73951;SDS011;62304;47.662;18.324;2023-09-07T14:12:40;7.60;;;3.90;;
73951;SDS011;62304;47.662;18.324;2023-09-07T14:15:45;7.33;;;3.63;;
73951;SDS011;62304;47.662;18.324;2023-09-07T14:18:48;7.72;;;3.95;;
73951;SDS011;62304;47.662;18.324;2023-09-07T14:21:53;8.13;;;4.00;;
73951;SDS011;62304;47.662;18.324;2023-09-07T14:24:55;7.87;;;4.35;;
73951;SDS011;62304;47.662;18.324;2023-09-07T14:27:59;8.37;;;3.77;;
73951;SDS011;62304;47.662;18.324;2023-09-07T14:31:02;6.97;;;3.20;;
73951;SDS011;62304;47.662;18.324;2023-09-07T14:34:10;8.60;;;4.20;;
73951;SDS011;62304;47.662;18.324;2023-09-07T14:37:14;8.82;;;3.62;;
73951;SDS011;62304;47.662;18.324;2023-09-07T14:40:18;7.18;;;3.70;;
73951;SDS011;62304;47.662;18.324;2023-09-07T14:43:25;8.03;;;3.60;;
73951;SDS011;62304;47.662;18.324;2023-09-07T14:46:28;6.60;;;3.80;;
73951;SDS011;62304;47.662;18.324;2023-09-07T14:49:32;6.15;;;3.60;;
73951;SDS011;62304;47.662;18.324;2023-09-07T14:52:35;7.35;;;3.70;;
73951;SDS011;62304;47.662;18.324;2023-09-07T14:55:43;6.80;;;3.90;;
73951;SDS011;62304;47.662;18.324;2023-09-07T14:58:47;6.20;;;3.77;;
73951;SDS011;62304;47.662;18.324;2023-09-07T15:01:50;7.27;;;3.80;;
73951;SDS011;62304;47.662;18.324;2023-09-07T15:05:06;6.28;;;3.40;;
73951;SDS011;62304;47.662;18.324;2023-09-07T15:08:10;7.22;;;3.70;;
73951;SDS011;62304;47.662;18.324;2023-09-07T15:11:14;7.35;;;3.67;;
73951;SDS011;62304;47.662;18.324;2023-09-07T15:14:17;7.43;;;3.20;;
73951;SDS011;62304;47.662;18.324;2023-09-07T15:17:21;8.97;;;3.43;;
73951;SDS011;62304;47.662;18.324;2023-09-07T15:20:24;8.40;;;3.58;;
73951;SDS011;62304;47.662;18.324;2023-09-07T15:23:27;9.13;;;4.00;;
73951;SDS011;62304;47.662;18.324;2023-09-07T15:26:42;5.97;;;3.28;;
73951;SDS011;62304;47.662;18.324;2023-09-07T15:29:47;7.57;;;3.20;;
73951;SDS011;62304;47.662;18.324;2023-09-07T15:32:51;6.20;;;3.13;;
73951;SDS011;62304;47.662;18.324;2023-09-07T15:35:55;6.28;;;3.25;;
73951;SDS011;62304;47.662;18.324;2023-09-07T15:38:59;7.15;;;3.35;;
73951;SDS011;62304;47.662;18.324;2023-09-07T15:42:02;11.27;;;4.25;;
73951;SDS011;62304;47.662;18.324;2023-09-07T15:45:06;11.43;;;3.80;;
73951;SDS011;62304;47.662;18.324;2023-09-07T15:48:11;9.87;;;3.70;;
73951;SDS011;62304;47.662;18.324;2023-09-07T15:51:15;8.23;;;3.45;;
73951;SDS011;62304;47.662;18.324;2023-09-07T15:54:20;6.25;;;3.37;;
73951;SDS011;62304;47.662;18.324;2023-09-07T15:57:25;7.10;;;3.47;;
73951;SDS011;62304;47.662;18.324;2023-09-07T16:00:29;5.53;;;3.43;;
73951;SDS011;62304;47.662;18.324;2023-09-07T16:03:33;7.10;;;3.33;;
73951;SDS011;62304;47.662;18.324;2023-09-07T16:06:37;6.70;;;3.65;;
73951;SDS011;62304;47.662;18.324;2023-09-07T16:09:41;8.40;;;3.58;;
73951;SDS011;62304;47.662;18.324;2023-09-07T16:12:44;10.07;;;3.58;;
73951;SDS011;62304;47.662;18.324;2023-09-07T16:15:47;8.07;;;4.20;;
73951;SDS011;62304;47.662;18.324;2023-09-07T16:18:51;10.13;;;3.63;;
73951;SDS011;62304;47.662;18.324;2023-09-07T16:21:56;8.65;;;3.87;;
73951;SDS011;62304;47.662;18.324;2023-09-07T16:24:59;8.15;;;3.62;;
73951;SDS011;62304;47.662;18.324;2023-09-07T16:28:04;6.80;;;3.62;;
73951;SDS011;62304;47.662;18.324;2023-09-07T16:31:09;6.30;;;3.40;;
73951;SDS011;62304;47.662;18.324;2023-09-07T16:34:14;8.17;;;3.40;;
73951;SDS011;62304;47.662;18.324;2023-09-07T16:37:17;7.05;;;3.53;;
73951;SDS011;62304;47.662;18.324;2023-09-07T16:40:21;8.70;;;3.60;;
73951;SDS011;62304;47.662;18.324;2023-09-07T16:43:25;9.07;;;3.70;;
73951;SDS011;62304;47.662;18.324;2023-09-07T16:46:28;9.17;;;3.90;;
73951;SDS011;62304;47.662;18.324;2023-09-07T16:49:31;13.57;;;4.03;;
73951;SDS011;62304;47.662;18.324;2023-09-07T16:52:36;10.20;;;3.75;;
73951;SDS011;62304;47.662;18.324;2023-09-07T16:55:40;9.82;;;4.03;;
73951;SDS011;62304;47.662;18.324;2023-09-07T16:58:44;9.77;;;4.05;;
73951;SDS011;62304;47.662;18.324;2023-09-07T17:01:51;11.17;;;4.33;;
73951;SDS011;62304;47.662;18.324;2023-09-07T17:04:57;8.27;;;3.67;;
73951;SDS011;62304;47.662;18.324;2023-09-07T17:08:01;11.70;;;4.53;;
73951;SDS011;62304;47.662;18.324;2023-09-07T17:11:06;13.32;;;4.28;;
73951;SDS011;62304;47.662;18.324;2023-09-07T17:14:10;11.25;;;4.10;;
73951;SDS011;62304;47.662;18.324;2023-09-07T17:17:13;9.17;;;3.73;;
73951;SDS011;62304;47.662;18.324;2023-09-07T17:20:17;9.33;;;3.97;;
73951;SDS011;62304;47.662;18.324;2023-09-07T17:23:22;8.77;;;4.10;;
73951;SDS011;62304;47.662;18.324;2023-09-07T17:26:25;11.00;;;3.78;;
73951;SDS011;62304;47.662;18.324;2023-09-07T17:29:29;9.18;;;3.67;;
73951;SDS011;62304;47.662;18.324;2023-09-07T17:32:33;14.67;;;3.97;;
73951;SDS011;62304;47.662;18.324;2023-09-07T17:35:38;10.83;;;3.50;;
73951;SDS011;62304;47.662;18.324;2023-09-07T17:38:41;8.57;;;3.53;;
73951;SDS011;62304;47.662;18.324;2023-09-07T17:41:45;11.85;;;4.28;;
73951;SDS011;62304;47.662;18.324;2023-09-07T17:44:49;9.02;;;3.95;;
73951;SDS011;62304;47.662;18.324;2023-09-07T17:47:53;13.17;;;4.80;;
73951;SDS011;62304;47.662;18.324;2023-09-07T17:50:57;10.23;;;4.27;;
73951;SDS011;62304;47.662;18.324;2023-09-07T17:54:02;11.65;;;4.25;;
73951;SDS011;62304;47.662;18.324;2023-09-07T17:57:05;10.05;;;3.80;;
73951;SDS011;62304;47.662;18.324;2023-09-07T18:00:10;10.80;;;4.00;;
73951;SDS011;62304;47.662;18.324;2023-09-07T18:03:16;11.87;;;4.10;;
73951;SDS011;62304;47.662;18.324;2023-09-07T18:06:19;10.50;;;4.23;;